Shelf Achiever — WDF4620 — position and weather

sailwx.info

Track history (hours):
 
Tides and Currents Weather Stations Pressure Air Temp Water Temp Dewpoint Dewpoint Depression Visibility Wind Speed Wind Dir Waves Ship Positions

Shelf Achiever

Owner: Shelf Workboats LLC, Galliano, LA. More information available from US FCC via Universal Licensing System and Coast Guard Vessel Documentation Center.

Last reported at 2018-Jan-18 12:16 UTC. Time now 2018-Jan-19 07:27 UTC.
Position N 29°44' W 092°06'.

Length 37 m.

Type: Passenger vessel. MMSI: 368502516.

Date/timePositionNaut miles runAvg speedWind from/ knotsBaromVisibWave heightAir tempDewpointWater temp
2018-Jan-18 12:16N 29°44' W 092°06'413.4
2018-Jan-18 12:00N 29°47' W 092°09'2 3.9
2018-Jan-18 11:30N 29°47' W 092°11'0 0.0
2018-Jan-18 10:58N 29°47' W 092°11'0 0.0
2018-Jan-18 10:30N 29°47' W 092°11'0 0.0
2018-Jan-18 10:00N 29°47' W 092°11'0 0.0
2018-Jan-18 09:29N 29°47' W 092°11'0 0.0
2018-Jan-18 09:00N 29°47' W 092°11'0 0.0
2018-Jan-18 08:30N 29°47' W 092°11'0 0.0
2018-Jan-18 08:00N 29°47' W 092°11'0 0.0
2018-Jan-18 07:30N 29°47' W 092°11'0 0.0
2018-Jan-18 07:00N 29°47' W 092°11'0 0.0
2018-Jan-18 06:30N 29°47' W 092°11'0 0.0
2018-Jan-18 06:00N 29°47' W 092°11'0 0.0
2018-Jan-18 05:30N 29°47' W 092°11'0 0.0
2018-Jan-18 05:00N 29°47' W 092°11'0 0.0
2018-Jan-18 04:30N 29°47' W 092°11'0 0.0
2018-Jan-18 04:00N 29°47' W 092°11'0 0.0
2018-Jan-18 03:30N 29°47' W 092°11'0 0.0
2018-Jan-18 03:00N 29°47' W 092°11'0 0.2
2018-Jan-18 02:30N 29°47' W 092°11'510.4
2018-Jan-18 02:00N 29°44' W 092°06'  
2018-Jan-12 04:04N 29°45' W 092°07'117.7
2018-Jan-12 04:00N 29°45' W 092°07'3 6.2
2018-Jan-12 03:30N 29°47' W 092°11'0 0.9
2018-Jan-12 03:01N 29°47' W 092°11'0 0.0
2018-Jan-12 02:31N 29°47' W 092°11'0 0.0
2018-Jan-12 02:00N 29°47' W 092°11'0 0.0
2018-Jan-12 01:31N 29°47' W 092°11'0 0.0
2018-Jan-12 01:01N 29°47' W 092°11'0 0.0
2018-Jan-12 00:31N 29°47' W 092°11'0 0.0
2018-Jan-12 00:00N 29°47' W 092°11'0 0.0
2018-Jan-11 23:31N 29°47' W 092°11'0 0.7
2018-Jan-11 23:00N 29°47' W 092°11'4 0.3
2018-Jan-11 10:47N 29°45' W 092°07'310.6
2018-Jan-11 10:30N 29°47' W 092°09'1 3.0
2018-Jan-11 10:00N 29°47' W 092°11'0 0.0
2018-Jan-11 09:30N 29°47' W 092°11'0 0.0
2018-Jan-11 09:00N 29°47' W 092°11'0 0.0
2018-Jan-11 08:30N 29°47' W 092°11'0 0.0
2018-Jan-11 08:00N 29°47' W 092°11'0 0.0
2018-Jan-11 07:30N 29°47' W 092°11'0 0.0
2018-Jan-11 07:00N 29°47' W 092°11'0 0.0
2018-Jan-11 06:30N 29°47' W 092°11'0 0.0
2018-Jan-11 06:00N 29°47' W 092°11'0 0.0
2018-Jan-11 05:30N 29°47' W 092°11'0 0.0
2018-Jan-11 05:00N 29°47' W 092°11'0 0.0
2018-Jan-11 04:30N 29°47' W 092°11'0 0.5
2018-Jan-11 04:00N 29°47' W 092°11'3 5.1
2018-Jan-11 03:31N 29°46' W 092°08'1 1.6
2018-Jan-11 03:00N 29°47' W 092°09'2 4.3
2018-Jan-11 02:30N 29°47' W 092°11'0 0.0
2018-Jan-11 02:00N 29°47' W 092°11'0 0.0
2018-Jan-11 01:30N 29°47' W 092°11'0 0.0
2018-Jan-11 01:00N 29°47' W 092°11'1 1.8
2018-Jan-11 00:30N 29°47' W 092°10'4 0.3
2018-Jan-10 11:47N 29°44' W 092°06'410.9
2018-Jan-10 11:28N 29°47' W 092°09'2 4.4
2018-Jan-10 11:00N 29°47' W 092°11'0 0.0
2018-Jan-10 10:30N 29°47' W 092°11'0 0.0
2018-Jan-10 10:00N 29°47' W 092°11'0 0.0
2018-Jan-10 09:30N 29°47' W 092°11'0 0.0
2018-Jan-10 09:00N 29°47' W 092°11'0 0.0
2018-Jan-10 08:31N 29°47' W 092°11'0 0.0
2018-Jan-10 08:01N 29°47' W 092°11'0 0.0
2018-Jan-10 07:30N 29°47' W 092°11'0 0.0
2018-Jan-10 07:01N 29°47' W 092°11'0 0.0
2018-Jan-10 06:31N 29°47' W 092°11'0 0.2
2018-Jan-10 06:00N 29°47' W 092°11'0 0.0
2018-Jan-10 05:30N 29°47' W 092°11'0 0.0
2018-Jan-10 05:01N 29°47' W 092°11'0 0.0
2018-Jan-10 04:30N 29°47' W 092°11'0 0.0
2018-Jan-10 04:01N 29°47' W 092°11'0 0.2
2018-Jan-10 03:30N 29°47' W 092°11'1 2.7
2018-Jan-10 03:01N 29°47' W 092°10'5 0.2
2018-Jan-09 07:48N 29°43' W 092°06'415.1
2018-Jan-09 07:30N 29°47' W 092°09'2 4.0
2018-Jan-09 07:00N 29°47' W 092°11'2 4.1
2018-Jan-09 06:30N 29°47' W 092°09'4 0.5
2018-Jan-08 22:24N 29°43' W 092°06'512.2
2018-Jan-08 22:00N 29°47' W 092°10'1 2.7
2018-Jan-08 21:30N 29°47' W 092°11'0 0.6
2018-Jan-08 21:00N 29°47' W 092°11'5 9.0
2018-Jan-08 20:30N 29°44' W 092°06'  
Track history (hours):
 
Tides and Currents Weather Stations Pressure Air Temp Water Temp Dewpoint Dewpoint Depression Visibility Wind Speed Wind Dir Waves Ship Positions

Shelf Achiever

Owner: Shelf Workboats LLC, Galliano, LA. More information available from US FCC via Universal Licensing System and Coast Guard Vessel Documentation Center.

Last reported at 2018-Jan-18 12:16 UTC. Time now 2018-Jan-19 07:27 UTC.
Position N 29°44' W 092°06'.

Length 37 m.

Type: Passenger vessel. MMSI: 368502516.

Date/timePositionNaut miles runAvg speedWind from/ knotsBaromVisibWave heightAir tempDewpointWater temp
2018-Jan-18 12:16N 29°44' W 092°06'413.4
2018-Jan-18 12:00N 29°47' W 092°09'2 3.9
2018-Jan-18 11:30N 29°47' W 092°11'0 0.0
2018-Jan-18 10:58N 29°47' W 092°11'0 0.0
2018-Jan-18 10:30N 29°47' W 092°11'0 0.0
2018-Jan-18 10:00N 29°47' W 092°11'0 0.0
2018-Jan-18 09:29N 29°47' W 092°11'0 0.0
2018-Jan-18 09:00N 29°47' W 092°11'0 0.0
2018-Jan-18 08:30N 29°47' W 092°11'0 0.0
2018-Jan-18 08:00N 29°47' W 092°11'0 0.0
2018-Jan-18 07:30N 29°47' W 092°11'0 0.0
2018-Jan-18 07:00N 29°47' W 092°11'0 0.0
2018-Jan-18 06:30N 29°47' W 092°11'0 0.0
2018-Jan-18 06:00N 29°47' W 092°11'0 0.0
2018-Jan-18 05:30N 29°47' W 092°11'0 0.0
2018-Jan-18 05:00N 29°47' W 092°11'0 0.0
2018-Jan-18 04:30N 29°47' W 092°11'0 0.0
2018-Jan-18 04:00N 29°47' W 092°11'0 0.0
2018-Jan-18 03:30N 29°47' W 092°11'0 0.0
2018-Jan-18 03:00N 29°47' W 092°11'0 0.2
2018-Jan-18 02:30N 29°47' W 092°11'510.4
2018-Jan-18 02:00N 29°44' W 092°06'  
2018-Jan-12 04:04N 29°45' W 092°07'117.7
2018-Jan-12 04:00N 29°45' W 092°07'3 6.2
2018-Jan-12 03:30N 29°47' W 092°11'0 0.9
2018-Jan-12 03:01N 29°47' W 092°11'0 0.0
2018-Jan-12 02:31N 29°47' W 092°11'0 0.0
2018-Jan-12 02:00N 29°47' W 092°11'0 0.0
2018-Jan-12 01:31N 29°47' W 092°11'0 0.0
2018-Jan-12 01:01N 29°47' W 092°11'0 0.0
2018-Jan-12 00:31N 29°47' W 092°11'0 0.0
2018-Jan-12 00:00N 29°47' W 092°11'0 0.0
2018-Jan-11 23:31N 29°47' W 092°11'0 0.7
2018-Jan-11 23:00N 29°47' W 092°11'4 0.3
2018-Jan-11 10:47N 29°45' W 092°07'310.6
2018-Jan-11 10:30N 29°47' W 092°09'1 3.0
2018-Jan-11 10:00N 29°47' W 092°11'0 0.0
2018-Jan-11 09:30N 29°47' W 092°11'0 0.0
2018-Jan-11 09:00N 29°47' W 092°11'0 0.0
2018-Jan-11 08:30N 29°47' W 092°11'0 0.0
2018-Jan-11 08:00N 29°47' W 092°11'0 0.0
2018-Jan-11 07:30N 29°47' W 092°11'0 0.0
2018-Jan-11 07:00N 29°47' W 092°11'0 0.0
2018-Jan-11 06:30N 29°47' W 092°11'0 0.0
2018-Jan-11 06:00N 29°47' W 092°11'0 0.0
2018-Jan-11 05:30N 29°47' W 092°11'0 0.0
2018-Jan-11 05:00N 29°47' W 092°11'0 0.0
2018-Jan-11 04:30N 29°47' W 092°11'0 0.5
2018-Jan-11 04:00N 29°47' W 092°11'3 5.1
2018-Jan-11 03:31N 29°46' W 092°08'1 1.6
2018-Jan-11 03:00N 29°47' W 092°09'2 4.3
2018-Jan-11 02:30N 29°47' W 092°11'0 0.0
2018-Jan-11 02:00N 29°47' W 092°11'0 0.0
2018-Jan-11 01:30N 29°47' W 092°11'0 0.0
2018-Jan-11 01:00N 29°47' W 092°11'1 1.8
2018-Jan-11 00:30N 29°47' W 092°10'4 0.3
2018-Jan-10 11:47N 29°44' W 092°06'410.9
2018-Jan-10 11:28N 29°47' W 092°09'2 4.4
2018-Jan-10 11:00N 29°47' W 092°11'0 0.0
2018-Jan-10 10:30N 29°47' W 092°11'0 0.0
2018-Jan-10 10:00N 29°47' W 092°11'0 0.0
2018-Jan-10 09:30N 29°47' W 092°11'0 0.0
2018-Jan-10 09:00N 29°47' W 092°11'0 0.0
2018-Jan-10 08:31N 29°47' W 092°11'0 0.0
2018-Jan-10 08:01N 29°47' W 092°11'0 0.0
2018-Jan-10 07:30N 29°47' W 092°11'0 0.0
2018-Jan-10 07:01N 29°47' W 092°11'0 0.0
2018-Jan-10 06:31N 29°47' W 092°11'0 0.2
2018-Jan-10 06:00N 29°47' W 092°11'0 0.0
2018-Jan-10 05:30N 29°47' W 092°11'0 0.0
2018-Jan-10 05:01N 29°47' W 092°11'0 0.0
2018-Jan-10 04:30N 29°47' W 092°11'0 0.0
2018-Jan-10 04:01N 29°47' W 092°11'0 0.2
2018-Jan-10 03:30N 29°47' W 092°11'1 2.7
2018-Jan-10 03:01N 29°47' W 092°10'5 0.2
2018-Jan-09 07:48N 29°43' W 092°06'415.1
2018-Jan-09 07:30N 29°47' W 092°09'2 4.0
2018-Jan-09 07:00N 29°47' W 092°11'2 4.1
2018-Jan-09 06:30N 29°47' W 092°09'4 0.5
2018-Jan-08 22:24N 29°43' W 092°06'512.2
2018-Jan-08 22:00N 29°47' W 092°10'1 2.7
2018-Jan-08 21:30N 29°47' W 092°11'0 0.6
2018-Jan-08 21:00N 29°47' W 092°11'5 9.0
2018-Jan-08 20:30N 29°44' W 092°06'  

Dump ship's entire track history